Time;durP1;ratioP1;P1;durP2;ratioP2;P2;SDS_P1;SDS_P2;PMS_P1;PMS_P2;Temp;Humidity;BMP_temperature;BMP_pressure;BME280_temperature;BME280_humidity;BME280_pressure;Samples;Min_cycle;Max_cycle;Signal;HPM_P1;HPM_P2
2021/12/06 10:53:42;;;;;;;7.20;6.05;;;;;;;4.51;75.42;98750.13;2622803;47;20034;-69
2021/12/06 10:56:20;;;;;;;9.23;6.05;;;;;;;4.48;74.99;98742.56;2624962;54;20577;-69
2021/12/06 10:58:51;;;;;;;7.25;5.97;;;;;;;4.62;75.39;98742.00;2623890;54;20034;-69
2021/12/06 11:01:23;;;;;;;6.57;5.40;;;;;;;4.68;74.73;98745.78;2623861;54;20039;-69
2021/12/06 11:03:55;;;;;;;9.05;6.00;;;;;;;4.74;74.40;98750.41;2623614;39;20093;-69
2021/12/06 11:06:30;;;;;;;8.50;5.22;;;;;;;4.83;74.50;98751.28;2623179;51;20074;-69
2021/12/06 11:09:06;;;;;;;9.77;5.88;;;;;;;4.94;73.96;98757.06;2623492;54;20034;-69
2021/12/06 11:11:39;;;;;;;12.85;9.68;;;;;;;5.05;73.92;98750.69;2622902;54;20053;-72
2021/12/06 11:14:12;;;;;;;12.93;8.45;;;;;;;5.12;73.34;98750.88;2623836;54;20054;-70
2021/12/06 11:16:44;;;;;;;8.10;5.30;;;;;;;5.15;73.08;98748.78;2623232;54;20034;-69
2021/12/06 11:19:16;;;;;;;6.03;5.10;;;;;;;5.17;72.99;98744.16;2623288;54;20037;-68
2021/12/06 11:21:48;;;;;;;7.45;6.40;;;;;;;5.22;72.86;98741.91;2622853;54;20034;-70
2021/12/06 11:24:27;;;;;;;7.60;6.32;;;;;;;5.17;72.90;98746.78;2623935;54;20023;-70
2021/12/06 11:27:01;;;;;;;9.95;8.52;;;;;;;5.14;72.79;98755.00;2625174;54;20049;-70
2021/12/06 11:29:34;;;;;;;12.95;10.93;;;;;;;5.21;73.05;98755.97;2624468;54;20026;-71
2021/12/06 11:32:08;;;;;;;7.95;6.50;;;;;;;5.27;73.07;98758.97;2624227;54;20038;-70
2021/12/06 11:34:43;;;;;;;7.38;6.35;;;;;;;5.19;72.90;98759.75;2625422;39;20426;-70
2021/12/06 11:37:15;;;;;;;7.65;5.95;;;;;;;5.18;73.16;98763.34;2624599;54;20037;-70
2021/12/06 11:39:50;;;;;;;8.93;7.65;;;;;;;5.06;72.81;98759.38;2625979;39;20400;-70
2021/12/06 11:42:20;;;;;;;11.85;8.38;;;;;;;4.99;73.05;98759.19;2624788;54;20045;-70
2021/12/06 11:44:50;;;;;;;7.65;6.85;;;;;;;5.00;72.94;98763.44;2624210;54;20090;-70
2021/12/06 11:47:22;;;;;;;8.40;6.35;;;;;;;5.07;73.22;98756.59;2624201;54;20060;-70
2021/12/06 11:49:54;;;;;;;6.45;5.65;;;;;;;5.03;72.78;98754.47;2624106;39;20446;-70
2021/12/06 11:52:26;;;;;;;7.32;5.97;;;;;;;5.05;72.65;98747.25;2623839;54;20038;-70
2021/12/06 11:55:00;;;;;;;13.15;7.40;;;;;;;5.05;72.69;98755.09;2622769;54;20030;-71
2021/12/06 11:57:32;;;;;;;14.23;6.90;;;;;;;5.12;73.24;98756.94;2623385;54;20549;-69
2021/12/06 12:00:09;;;;;;;13.65;10.38;;;;;;;5.14;73.41;98757.63;2623271;47;20093;-69
2021/12/06 12:02:43;;;;;;;13.70;9.10;;;;;;;5.17;73.18;98759.09;2624677;54;20039;-69
2021/12/06 12:05:32;;;;;;;12.90;8.40;;;;;;;5.15;72.67;98761.88;2624497;39;20449;-69
2021/12/06 16:31:41;;;;;;;7.43;6.03;;;;;;;3.30;71.35;98553.03;2618881;54;20046;-73
2021/12/06 17:01:41;;;;;;;32.92;19.85;;;;;;;3.52;72.26;98556.94;2581437;54;20017;-72
2021/12/06 17:04:16;;;;;;;22.00;13.73;;;;;;;3.53;72.04;98542.09;2624155;54;20030;-74
2021/12/06 17:06:46;;;;;;;19.38;10.30;;;;;;;3.54;72.28;98538.50;2625363;54;20038;-74
2021/12/06 17:09:18;;;;;;;17.63;9.40;;;;;;;3.48;71.96;98543.38;2624034;54;20038;-74
2021/12/06 17:11:54;;;;;;;20.40;9.30;;;;;;;3.55;72.56;98540.13;2626197;54;20026;-74
2021/12/06 17:14:27;;;;;;;14.52;9.20;;;;;;;3.60;72.23;98540.50;2624905;54;20026;-73
2021/12/06 17:17:00;;;;;;;10.75;7.38;;;;;;;3.60;72.39;98530.03;2620304;47;20022;-78
2021/12/06 17:19:36;;;;;;;9.73;6.45;;;;;;;3.54;71.86;98528.84;2627740;54;20058;-73
2021/12/06 17:22:10;;;;;;;10.45;9.30;;;;;;;3.58;72.14;98524.13;2620607;54;20031;-68
2021/12/06 17:24:43;;;;;;;9.73;7.05;;;;;;;3.58;72.31;98527.56;2620653;47;20046;-69
2021/12/06 17:27:13;;;;;;;11.68;8.23;;;;;;;3.63;72.01;98522.72;2621444;39;20429;-69
2021/12/06 17:29:43;;;;;;;13.23;10.25;;;;;;;3.64;71.83;98520.91;2620069;54;20042;-70
2021/12/06 17:32:16;;;;;;;12.18;9.95;;;;;;;3.63;71.95;98525.31;2618942;54;20042;-68
2021/12/06 17:34:47;;;;;;;16.52;10.57;;;;;;;3.65;71.49;98517.31;2618174;51;20038;-69
2021/12/06 17:37:16;;;;;;;17.80;10.65;;;;;;;3.50;71.28;98511.03;2619713;39;20449;-68
2021/12/06 17:39:49;;;;;;;18.83;11.18;;;;;;;3.45;72.22;98504.47;2619124;54;20030;-68
2021/12/06 17:42:21;;;;;;;18.65;11.90;;;;;;;3.48;71.92;98500.72;2618642;54;20030;-68
2021/12/06 17:44:54;;;;;;;21.67;11.23;;;;;;;3.43;72.13;98497.78;2620283;39;20422;-69
2021/12/06 17:47:28;;;;;;;16.15;10.52;;;;;;;3.47;72.44;98499.91;2621537;51;20061;-71
2021/12/06 17:49:58;;;;;;;;;;;;;;;3.47;72.43;98499.09;2623534;47;20030;-72
2021/12/06 17:52:28;;;;;;;16.08;10.00;;;;;;;3.49;72.40;98510.19;2625784;47;20509;-74
2021/12/06 17:55:01;;;;;;;12.00;8.98;;;;;;;3.51;72.63;98512.66;2626165;54;20038;-74
2021/12/06 17:57:42;;;;;;;10.13;8.60;;;;;;;3.56;72.31;98516.47;2625992;54;20082;-75
2021/12/06 18:00:14;;;;;;;11.23;8.70;;;;;;;3.60;72.50;98517.78;2626465;54;20098;-73
2021/12/06 18:02:46;;;;;;;11.65;8.43;;;;;;;3.61;72.19;98519.41;2625673;54;20045;-76
2021/12/06 18:05:17;;;;;;;11.18;8.73;;;;;;;3.59;72.14;98517.94;2626289;54;20038;-72
2021/12/06 18:07:48;;;;;;;11.02;9.40;;;;;;;3.56;72.42;98511.22;2624474;39;20456;-74
2021/12/06 18:10:20;;;;;;;18.73;13.65;;;;;;;3.60;72.22;98511.75;2624425;54;20552;-76
2021/12/06 18:12:49;;;;;;;19.38;14.13;;;;;;;3.53;71.72;98505.50;2624371;54;20029;-73
2021/12/06 18:15:19;;;;;;;16.80;11.98;;;;;;;3.49;71.81;98512.81;2622195;54;20031;-75
2021/12/06 18:17:52;;;;;;;15.93;11.50;;;;;;;3.47;72.33;98506.94;2627580;54;20038;-75
2021/12/06 18:20:21;;;;;;;16.80;11.00;;;;;;;3.42;72.42;98504.75;2628501;54;20027;-74
2021/12/06 18:22:51;;;;;;;14.85;10.77;;;;;;;3.39;72.60;98502.47;2620005;54;20054;-73
2021/12/06 18:25:21;;;;;;;16.23;10.15;;;;;;;3.40;72.50;98505.91;2619900;47;20034;-72
2021/12/06 18:27:51;;;;;;;21.27;11.32;;;;;;;3.36;72.16;98502.78;2621337;54;20039;-72
2021/12/06 18:30:22;;;;;;;18.08;10.85;;;;;;;3.33;72.54;98508.31;2621271;39;20419;-73
2021/12/06 18:32:55;;;;;;;16.63;10.10;;;;;;;3.28;72.15;98502.72;2620831;54;20037;-74
2021/12/06 18:35:26;;;;;;;20.83;12.50;;;;;;;3.25;72.48;98502.22;2621759;54;20045;-74
2021/12/06 18:37:57;;;;;;;16.10;10.15;;;;;;;3.23;72.58;98497.97;2624269;47;20029;-74
2021/12/06 18:40:33;;;;;;;14.48;8.80;;;;;;;3.16;72.43;98504.78;2624942;54;20035;-74
2021/12/06 18:43:03;;;;;;;13.65;8.55;;;;;;;3.14;72.39;98509.34;2623945;54;20043;-73
2021/12/06 18:45:38;;;;;;;12.93;8.98;;;;;;;3.14;72.54;98509.34;2622420;47;20049;-74
2021/12/06 18:48:11;;;;;;;11.38;8.57;;;;;;;3.10;72.79;98520.22;2621090;47;20026;-73
2021/12/06 18:50:41;;;;;;;13.65;9.20;;;;;;;3.12;72.74;98518.28;2619730;54;20031;-73
2021/12/06 18:53:14;;;;;;;16.02;10.27;;;;;;;3.18;72.57;98510.69;2621009;54;20033;-74
2021/12/06 18:55:44;;;;;;;15.63;11.52;;;;;;;3.21;72.68;98512.97;2619414;47;20545;-72
2021/12/06 18:58:14;;;;;;;18.27;13.00;;;;;;;3.22;72.16;98506.78;2619033;54;20043;-72
2021/12/06 19:00:44;;;;;;;13.68;10.50;;;;;;;3.24;72.25;98501.41;2619888;54;20039;-72
2021/12/06 19:03:17;;;;;;;15.13;9.93;;;;;;;3.26;72.16;98501.22;2620041;54;20054;-70
2021/12/06 19:05:47;;;;;;;12.45;7.88;;;;;;;3.25;72.36;98497.81;2619386;54;20022;-70
2021/12/06 19:08:16;;;;;;;9.75;7.40;;;;;;;3.20;72.50;98484.38;2622321;47;20032;-70
2021/12/06 19:10:46;;;;;;;11.25;6.45;;;;;;;3.16;72.37;98483.06;2626435;54;20042;-70
2021/12/06 19:13:16;;;;;;;8.77;6.57;;;;;;;3.15;72.41;98481.44;2627182;54;20046;-71
2021/12/06 19:15:46;;;;;;;10.57;7.43;;;;;;;3.15;72.56;98477.03;2621911;47;20034;-72
2021/12/06 19:18:18;;;;;;;11.18;7.93;;;;;;;3.12;72.60;98466.88;2620169;47;20050;-71
2021/12/06 19:20:49;;;;;;;10.10;7.55;;;;;;;3.09;72.63;98461.94;2619870;54;20046;-71
2021/12/06 19:23:21;;;;;;;40.75;31.05;;;;;;;3.11;72.37;98448.75;2620469;54;20041;-71
2021/12/06 19:25:53;;;;;;;10.55;7.72;;;;;;;3.16;72.22;98442.09;2622127;54;20065;-72
2021/12/06 19:28:25;;;;;;;7.28;6.07;;;;;;;3.23;71.94;98442.28;2624121;39;20403;-72
2021/12/06 19:30:58;;;;;;;9.38;7.22;;;;;;;3.23;71.88;98434.47;2621131;54;20041;-72
2021/12/06 19:33:33;;;;;;;8.82;6.75;;;;;;;3.23;71.84;98437.88;2623216;54;20085;-70
2021/12/06 19:36:08;;;;;;;9.25;6.50;;;;;;;3.27;72.07;98430.56;2624585;54;20031;-71
2021/12/06 19:38:39;;;;;;;8.50;6.57;;;;;;;3.23;71.76;98416.16;2624673;39;20434;-70
2021/12/06 19:41:10;;;;;;;8.57;6.32;;;;;;;3.27;71.97;98419.28;2623811;54;20022;-71
2021/12/06 19:43:40;;;;;;;9.77;7.10;;;;;;;3.32;71.61;98409.19;2619873;54;20034;-70
2021/12/06 19:46:11;;;;;;;9.30;5.30;;;;;;;3.26;72.02;98401.97;2619122;54;20037;-71
2021/12/06 19:48:43;;;;;;;7.72;5.25;;;;;;;3.27;71.93;98394.00;2619735;54;20035;-72
2021/12/06 19:51:15;;;;;;;8.18;5.60;;;;;;;3.31;71.84;98386.66;2619659;54;20045;-70
2021/12/06 19:53:45;;;;;;;7.78;4.60;;;;;;;3.35;71.54;98393.22;2619088;51;20030;-71
2021/12/06 19:56:15;;;;;;;6.47;4.63;;;;;;;3.39;71.41;98382.28;2619736;54;20034;-70
2021/12/06 19:58:45;;;;;;;9.55;6.15;;;;;;;3.41;71.77;98376.88;2622165;54;20122;-72
2021/12/06 20:01:16;;;;;;;18.00;9.93;;;;;;;3.39;71.47;98369.22;2622881;47;20037;-69
2021/12/06 20:03:51;;;;;;;14.43;8.85;;;;;;;3.42;71.60;98376.72;2623564;54;20619;-72
2021/12/06 20:06:25;;;;;;;14.82;9.25;;;;;;;3.47;71.31;98373.66;2620917;54;20043;-72
2021/12/06 20:08:58;;;;;;;15.00;10.23;;;;;;;3.51;71.53;98363.69;2620325;54;20129;-70
2021/12/06 20:11:28;;;;;;;13.45;8.63;;;;;;;3.52;71.03;98362.72;2620073;54;20041;-71
2021/12/06 20:13:58;;;;;;;21.98;15.05;;;;;;;3.53;71.36;98354.72;2619918;54;20039;-69
2021/12/06 20:16:45;;;;;;;15.88;10.10;;;;;;;3.50;70.87;98346.38;2618466;51;20034;-70
2021/12/06 20:19:18;;;;;;;16.17;10.75;;;;;;;3.47;71.03;98340.50;2619007;54;20042;-70
2021/12/06 20:21:48;;;;;;;12.35;8.30;;;;;;;3.52;71.04;98328.75;2618272;54;20151;-71
2021/12/06 20:24:17;;;;;;;9.85;6.85;;;;;;;3.54;71.05;98330.22;2618870;54;20023;-70
2021/12/06 20:26:47;;;;;;;8.02;6.00;;;;;;;3.55;70.71;98320.56;2619630;54;20030;-71
2021/12/06 20:29:27;;;;;;;7.18;5.50;;;;;;;3.54;70.83;98319.75;2619711;54;20039;-72
2021/12/06 20:31:59;;;;;;;7.75;5.53;;;;;;;3.49;70.75;98308.97;2620900;31;20578;-70
2021/12/06 20:34:32;;;;;;;6.50;5.00;;;;;;;3.50;70.54;98307.19;2619727;54;20034;-70
2021/12/06 20:37:02;;;;;;;6.45;5.20;;;;;;;3.50;70.34;98301.94;2622580;54;20033;-70
2021/12/06 20:39:32;;;;;;;5.35;4.22;;;;;;;3.49;70.75;98293.28;2622620;54;20042;-70
2021/12/06 20:42:02;;;;;;;5.72;4.90;;;;;;;3.55;70.63;98297.06;2623232;54;20061;-71
2021/12/06 20:44:39;;;;;;;5.55;4.15;;;;;;;3.56;70.29;98299.53;2625494;39;20531;-70
2021/12/06 20:47:09;;;;;;;7.80;5.25;;;;;;;3.55;70.34;98283.97;2622209;47;20035;-71
2021/12/06 20:49:42;;;;;;;6.10;5.10;;;;;;;3.58;70.70;98275.84;2622854;54;20541;-70
2021/12/06 20:52:11;;;;;;;6.65;5.00;;;;;;;3.54;70.51;98262.25;2619986;47;20039;-71
2021/12/06 20:54:41;;;;;;;6.97;4.97;;;;;;;3.56;70.09;98260.31;2622281;54;20062;-71
2021/12/06 20:57:11;;;;;;;9.55;6.30;;;;;;;3.53;70.37;98252.78;2621554;46;20554;-71
2021/12/06 20:59:41;;;;;;;7.80;5.30;;;;;;;3.59;70.40;98238.25;2620670;54;20022;-71
2021/12/06 21:02:11;;;;;;;6.32;4.78;;;;;;;3.55;70.28;98242.16;2619798;51;20022;-71
2021/12/06 21:04:43;;;;;;;6.32;5.00;;;;;;;3.54;70.25;98235.31;2619109;47;20521;-70
2021/12/06 21:07:13;;;;;;;6.68;4.68;;;;;;;3.58;69.89;98220.94;2618989;54;20034;-70
2021/12/06 21:09:45;;;;;;;8.98;6.68;;;;;;;3.52;69.92;98221.59;2622044;54;20022;-70
2021/12/06 21:12:25;;;;;;;9.68;6.35;;;;;;;3.53;69.79;98212.78;2621480;54;20033;-70
2021/12/06 21:15:17;;;;;;;5.20;4.43;;;;;;;3.53;69.62;98203.16;2620795;54;20081;-71
2021/12/06 21:17:46;;;;;;;5.72;4.90;;;;;;;3.53;69.66;98199.72;2619713;54;20066;-72
2021/12/06 21:20:19;;;;;;;6.45;4.60;;;;;;;3.45;69.95;98190.88;2620062;54;20038;-71
2021/12/06 21:22:53;;;;;;;5.53;3.92;;;;;;;3.43;69.93;98192.84;2620752;46;20154;-71
2021/12/06 21:25:24;;;;;;;6.00;4.20;;;;;;;3.45;69.93;98196.09;2624148;54;20030;-70
2021/12/06 21:27:54;;;;;;;6.13;4.72;;;;;;;3.49;69.59;98194.00;2623677;54;20057;-70
2021/12/06 21:30:24;;;;;;;4.25;3.70;;;;;;;3.46;69.85;98194.31;2622767;54;20034;-70
2021/12/06 21:32:54;;;;;;;4.75;4.10;;;;;;;3.47;70.19;98180.28;2619041;46;20030;-69
2021/12/06 21:35:27;;;;;;;4.60;3.85;;;;;;;3.45;70.41;98180.44;2618761;47;20030;-70
2021/12/06 21:37:58;;;;;;;3.85;3.45;;;;;;;3.47;70.13;98162.00;2621135;47;20035;-70
2021/12/06 21:40:31;;;;;;;4.35;3.92;;;;;;;3.42;70.43;98149.38;2625240;54;20015;-71
2021/12/06 21:43:01;;;;;;;4.20;3.80;;;;;;;3.40;70.42;98148.75;2625000;47;20040;-71
2021/12/06 21:45:30;;;;;;;4.28;3.58;;;;;;;3.40;70.62;98153.16;2622688;54;20038;-71
2021/12/06 21:48:01;;;;;;;5.80;3.72;;;;;;;3.39;70.85;98154.16;2621198;54;20027;-71
2021/12/06 21:50:38;;;;;;;3.95;3.28;;;;;;;3.45;70.71;98151.69;2619340;54;20178;-71
2021/12/06 21:53:10;;;;;;;4.47;3.50;;;;;;;3.40;71.07;98156.59;2619635;54;20037;-71
2021/12/06 21:55:40;;;;;;;5.60;3.47;;;;;;;3.37;71.41;98163.94;2619234;47;20033;-71
2021/12/06 21:58:12;;;;;;;5.03;4.15;;;;;;;3.30;71.25;98163.75;2619875;54;20027;-73
2021/12/06 22:00:46;;;;;;;4.22;3.80;;;;;;;3.28;71.42;98170.94;2620314;54;20081;-72
2021/12/06 22:03:24;;;;;;;4.75;3.97;;;;;;;3.25;71.82;98152.97;2619884;54;20033;-72
2021/12/06 22:06:00;;;;;;;4.72;4.25;;;;;;;3.26;71.87;98151.19;2620236;47;20027;-71
2021/12/06 22:08:31;;;;;;;4.20;3.50;;;;;;;3.28;72.13;98144.81;2620708;51;20034;-72
2021/12/06 22:11:01;;;;;;;3.80;3.13;;;;;;;3.31;72.02;98136.69;2621688;47;20038;-72
2021/12/06 22:13:31;;;;;;;4.65;3.85;;;;;;;3.35;71.89;98122.31;2621603;54;20029;-71
2021/12/06 22:16:01;;;;;;;3.40;2.85;;;;;;;3.35;71.80;98135.38;2619593;47;20022;-72
2021/12/06 22:18:32;;;;;;;3.83;3.28;;;;;;;3.32;71.90;98140.91;2619826;46;20026;-72
2021/12/06 22:21:05;;;;;;;5.22;3.90;;;;;;;3.32;71.95;98140.91;2620071;54;20046;-72
2021/12/06 22:23:37;;;;;;;4.90;4.10;;;;;;;3.25;71.71;98128.66;2620270;54;20034;-71
2021/12/06 22:26:07;;;;;;;6.43;4.38;;;;;;;3.28;71.90;98130.94;2620141;46;20042;-72
2021/12/06 22:28:36;;;;;;;7.00;5.18;;;;;;;3.28;71.77;98120.50;2619127;54;20038;-72
2021/12/06 22:31:06;;;;;;;5.40;4.20;;;;;;;3.28;72.02;98120.50;2619190;47;20125;-71
2021/12/06 22:33:37;;;;;;;4.30;3.60;;;;;;;3.21;72.18;98118.53;2619560;51;20042;-71
2021/12/06 22:36:09;;;;;;;6.97;4.50;;;;;;;3.13;72.77;98112.47;2618960;54;20045;-70
2021/12/06 22:38:40;;;;;;;4.85;3.90;;;;;;;3.04;73.01;98106.44;2618636;54;20045;-71
2021/12/06 22:41:09;;;;;;;5.28;4.40;;;;;;;3.04;73.37;98105.63;2619522;54;20037;-70
2021/12/06 22:43:39;;;;;;;7.90;6.00;;;;;;;2.95;73.55;98103.00;2619325;54;20034;-71
2021/12/06 22:46:09;;;;;;;6.82;5.32;;;;;;;2.97;73.90;98087.16;2618284;47;20545;-70
2021/12/06 22:48:41;;;;;;;6.10;4.38;;;;;;;2.95;73.92;98089.94;2617983;54;20041;-71
2021/12/06 22:51:14;;;;;;;6.95;5.25;;;;;;;2.89;75.00;98081.94;2618970;39;20438;-70
2021/12/06 22:53:44;;;;;;;7.13;5.18;;;;;;;2.87;74.72;98082.09;2619680;54;20034;-70
2021/12/06 22:56:13;;;;;;;8.40;5.97;;;;;;;2.84;75.00;98085.03;2619539;54;20530;-71
2021/12/06 22:58:43;;;;;;;5.95;3.78;;;;;;;2.82;75.13;98083.59;2620098;54;20052;-71
2021/12/06 23:01:25;;;;;;;27.80;12.77;;;;;;;2.80;75.20;98078.50;2620531;47;20038;-72
2021/12/06 23:03:59;;;;;;;16.60;8.52;;;;;;;2.84;75.59;98077.19;2620459;47;20041;-72
2021/12/06 23:06:33;;;;;;;16.35;8.27;;;;;;;2.85;75.36;98073.59;2620682;47;20129;-71
2021/12/06 23:09:06;;;;;;;25.50;11.45;;;;;;;2.82;75.61;98073.13;2620321;54;20030;-70
2021/12/06 23:11:38;;;;;;;11.98;7.40;;;;;;;2.85;75.51;98073.59;2619413;54;20534;-72
2021/12/06 23:16:50;;;;;;;6.28;5.07;;;;;;;2.82;76.26;98068.72;2619132;54;20031;-64
2021/12/06 23:19:21;;;;;;;6.18;4.70;;;;;;;2.80;76.23;98062.03;2621914;47;20027;-64
2021/12/06 23:21:53;;;;;;;4.03;3.63;;;;;;;2.87;75.83;98069.06;2622848;47;20030;-66
2021/12/06 23:24:23;;;;;;;4.28;3.88;;;;;;;2.88;75.93;98070.69;2623924;54;20030;-66
2021/12/06 23:26:58;;;;;;;4.25;3.67;;;;;;;2.82;76.39;98070.53;2623268;54;20030;-67
2021/12/06 23:29:30;;;;;;;4.72;3.80;;;;;;;2.78;76.14;98062.19;2621613;47;20030;-67
2021/12/06 23:32:00;;;;;;;3.67;3.30;;;;;;;2.73;76.39;98064.47;2622135;54;20026;-66
2021/12/06 23:34:32;;;;;;;4.22;3.50;;;;;;;2.68;77.06;98059.72;2622839;54;20170;-67
2021/12/06 23:37:06;;;;;;;5.03;4.35;;;;;;;2.67;76.99;98045.03;2622997;54;20035;-67
2021/12/06 23:39:54;;;;;;;4.13;3.00;;;;;;;2.68;77.43;98058.91;2623225;54;20085;-67
2021/12/06 23:47:49;;;;;;;5.00;3.80;;;;;;;2.67;77.40;98059.88;2618565;54;20023;-66
2021/12/06 23:50:18;;;;;;;5.22;3.75;;;;;;;2.70;77.73;98054.34;2618200;54;20592;-65
2021/12/06 23:52:52;;;;;;;4.55;3.70;;;;;;;2.68;77.48;98049.28;2618084;54;20566;-65
2021/12/06 23:55:22;;;;;;;5.18;3.72;;;;;;;2.72;77.75;98044.56;2618614;39;20446;-65
2021/12/06 23:57:51;;;;;;;5.40;3.92;;;;;;;2.73;77.93;98040.97;2618748;54;20030;-66
